createdAt,value
2019-06-10T00:00:53.227Z,4.77
2019-06-10T00:03:26.203Z,5.23
2019-06-10T00:06:00.863Z,5.00
2019-06-10T00:08:32.205Z,5.20
2019-06-10T00:11:07.937Z,5.50
2019-06-10T00:13:42.179Z,4.30
2019-06-10T00:16:17.042Z,5.27
2019-06-10T00:18:51.085Z,6.47
2019-06-10T00:21:25.101Z,5.30
2019-06-10T00:23:57.772Z,4.83
2019-06-10T00:26:30.750Z,5.13
2019-06-10T00:29:05.783Z,4.63
2019-06-10T00:31:41.770Z,5.00
2019-06-10T00:34:14.464Z,5.23
2019-06-10T00:36:51.067Z,4.83
2019-06-10T00:39:25.627Z,5.00
2019-06-10T00:42:02.489Z,4.97
2019-06-10T00:44:34.315Z,5.17
2019-06-10T00:47:12.763Z,4.97
2019-06-10T00:49:42.486Z,4.90
2019-06-10T00:52:16.413Z,5.47
2019-06-10T00:54:52.072Z,5.30
2019-06-10T00:57:24.477Z,5.30
2019-06-10T00:59:58.378Z,4.43
2019-06-10T01:02:34.157Z,5.10
2019-06-10T01:05:07.190Z,4.60
2019-06-10T01:08:01.226Z,4.43
2019-06-10T01:10:33.734Z,5.10
2019-06-10T01:13:07.079Z,4.57
2019-06-10T01:15:41.768Z,4.80
2019-06-10T01:18:33.654Z,5.27
2019-06-10T01:20:51.833Z,4.77
2019-06-10T01:23:26.333Z,5.30
2019-06-10T01:26:01.527Z,5.20
2019-06-10T01:28:35.469Z,6.10
2019-06-10T01:31:13.291Z,4.70
2019-06-10T01:33:45.364Z,13.87
2019-06-10T01:36:18.170Z,5.63
2019-06-10T01:38:51.275Z,5.60
2019-06-10T01:41:24.717Z,4.90
2019-06-10T01:43:58.640Z,4.93
2019-06-10T01:46:31.627Z,4.97
2019-06-10T01:49:04.760Z,4.67
2019-06-10T01:51:36.826Z,4.80
2019-06-10T01:54:11.969Z,4.77
2019-06-10T01:56:43.743Z,3.90
2019-06-10T01:59:16.944Z,4.93
2019-06-10T02:01:57.091Z,5.27
2019-06-10T02:04:28.721Z,5.53
2019-06-10T02:07:04.113Z,5.20
2019-06-10T02:09:37.719Z,4.83
2019-06-10T02:12:16.312Z,4.80
2019-06-10T02:14:46.771Z,5.00
2019-06-10T02:17:23.936Z,5.30
2019-06-10T02:19:55.727Z,5.87
2019-06-10T02:22:31.809Z,4.90
2019-06-10T02:25:06.405Z,5.50
2019-06-10T02:27:56.176Z,5.10
2019-06-10T02:30:41.693Z,6.13
2019-06-10T02:33:06.829Z,5.50
2019-06-10T02:35:48.439Z,4.90
2019-06-10T02:38:19.883Z,5.90
2019-06-10T02:40:53.902Z,5.10
2019-06-10T02:43:33.292Z,4.70
2019-06-10T02:46:30.775Z,5.37
2019-06-10T02:49:16.433Z,4.90
2019-06-10T02:51:35.797Z,4.43
2019-06-10T02:54:07.232Z,5.27
2019-06-10T02:56:43.904Z,5.13
2019-06-10T02:59:18.238Z,5.40
2019-06-10T03:01:53.421Z,5.53
2019-06-10T03:04:29.958Z,5.50
2019-06-10T03:07:03.368Z,6.33
2019-06-10T03:09:38.101Z,5.60
2019-06-10T03:12:12.288Z,5.80
2019-06-10T03:14:45.212Z,5.53
2019-06-10T03:17:20.003Z,5.50
2019-06-10T03:19:54.968Z,5.60
2019-06-10T03:22:28.454Z,5.50
2019-06-10T03:25:05.296Z,4.77
2019-06-10T03:27:52.514Z,6.03
2019-06-10T03:30:48.045Z,5.57
2019-06-10T03:33:13.759Z,6.90
2019-06-10T03:35:49.099Z,6.47
2019-06-10T03:38:23.650Z,5.40
2019-06-10T03:41:04.343Z,6.23
2019-06-10T03:43:42.691Z,5.30
2019-06-10T03:46:19.044Z,6.10
2019-06-10T03:48:52.720Z,5.40
2019-06-10T03:51:27.398Z,6.00
2019-06-10T03:54:02.486Z,6.10
2019-06-10T03:56:38.242Z,5.60
2019-06-10T03:59:14.260Z,6.30
2019-06-10T04:01:47.492Z,6.53
2019-06-10T04:04:25.185Z,5.27
2019-06-10T04:06:58.510Z,6.00
2019-06-10T04:09:33.417Z,5.50
2019-06-10T04:12:07.588Z,5.67
2019-06-10T04:14:41.965Z,5.83
2019-06-10T04:17:13.408Z,6.50
2019-06-10T04:19:48.153Z,6.47
2019-06-10T04:22:22.658Z,5.73
2019-06-10T04:24:59.332Z,6.30
2019-06-10T04:27:32.820Z,7.00
2019-06-10T04:30:08.291Z,6.10
2019-06-10T04:32:58.830Z,5.10
2019-06-10T04:35:39.350Z,6.00
2019-06-10T04:38:13.102Z,6.40
2019-06-10T04:40:46.308Z,6.30
2019-06-10T04:43:20.427Z,5.70
2019-06-10T04:45:56.215Z,5.93
2019-06-10T04:48:29.386Z,6.00
2019-06-10T04:51:02.797Z,5.93
2019-06-10T04:53:40.292Z,6.00
2019-06-10T04:56:13.469Z,5.83
2019-06-10T04:58:46.670Z,6.80
2019-06-10T05:01:24.124Z,6.23
2019-06-10T05:04:02.976Z,6.40
2019-06-10T05:06:35.624Z,6.07
2019-06-10T05:09:08.748Z,6.13
2019-06-10T05:11:43.098Z,6.70
2019-06-10T05:14:17.085Z,5.83
2019-06-10T05:16:54.167Z,6.10
2019-06-10T05:19:28.025Z,6.70
2019-06-10T05:22:04.456Z,5.80
2019-06-10T05:24:37.074Z,5.97
2019-06-10T05:27:09.841Z,6.50
2019-06-10T05:29:43.778Z,5.80
2019-06-10T05:32:16.079Z,7.00
2019-06-10T05:34:52.659Z,7.60
2019-06-10T05:37:26.388Z,6.77
2019-06-10T05:39:59.196Z,5.57
2019-06-10T05:42:35.855Z,5.77
2019-06-10T05:45:35.329Z,6.43
2019-06-10T05:48:09.690Z,6.73
2019-06-10T05:50:43.082Z,6.13
2019-06-10T05:53:14.997Z,5.33
2019-06-10T05:55:48.069Z,6.97
2019-06-10T05:58:25.034Z,6.43
2019-06-10T06:00:57.061Z,5.57
2019-06-10T06:03:33.446Z,5.43
2019-06-10T06:06:05.130Z,5.63
2019-06-10T06:08:38.175Z,5.67
2019-06-10T06:11:12.920Z,6.60
2019-06-10T06:13:47.207Z,5.60
2019-06-10T06:16:23.007Z,6.43
2019-06-10T06:18:57.006Z,5.90
2019-06-10T06:21:38.776Z,5.80
2019-06-10T06:24:05.874Z,5.80
2019-06-10T06:26:42.779Z,5.50
2019-06-10T06:29:16.381Z,6.03
2019-06-10T06:31:52.467Z,5.67
2019-06-10T06:34:24.152Z,5.50
2019-06-10T06:36:57.144Z,6.00
2019-06-10T06:39:32.265Z,6.27
2019-06-10T06:42:04.203Z,6.60
2019-06-10T06:44:38.152Z,6.00
2019-06-10T06:47:13.173Z,6.60
2019-06-10T06:49:46.223Z,6.47
2019-06-10T06:52:46.531Z,6.23
2019-06-10T06:54:56.679Z,6.60
2019-06-10T06:57:33.746Z,6.73
2019-06-10T07:00:34.045Z,6.40
2019-06-10T07:02:59.283Z,7.40
2019-06-10T07:05:35.517Z,7.23
2019-06-10T07:08:07.401Z,6.23
2019-06-10T07:10:41.420Z,6.63
2019-06-10T07:13:16.091Z,6.50
2019-06-10T07:15:49.549Z,6.33
2019-06-10T07:18:23.309Z,6.57
2019-06-10T07:21:02.686Z,6.60
2019-06-10T07:23:41.130Z,5.97
2019-06-10T07:26:15.242Z,6.47
2019-06-10T07:28:48.589Z,6.83
2019-06-10T07:31:26.830Z,7.17
2019-06-10T07:33:57.166Z,6.53
2019-06-10T07:36:29.507Z,6.13
2019-06-10T07:39:03.628Z,7.77
2019-06-10T07:41:37.451Z,6.53
2019-06-10T07:44:12.467Z,6.90
2019-06-10T07:46:47.138Z,7.27
2019-06-10T07:49:23.623Z,6.50
2019-06-10T07:51:55.434Z,6.50
2019-06-10T07:54:26.626Z,7.80
2019-06-10T07:57:02.473Z,6.20
2019-06-10T07:59:37.351Z,6.33
2019-06-10T08:02:22.887Z,6.87
2019-06-10T08:04:54.356Z,6.73
2019-06-10T08:07:30.255Z,6.90
2019-06-10T08:10:06.606Z,6.80
2019-06-10T08:12:56.532Z,6.50
2019-06-10T08:15:35.474Z,6.83
2019-06-10T08:18:10.053Z,7.60
2019-06-10T08:20:47.714Z,6.97
2019-06-10T08:23:25.720Z,7.10
2019-06-10T08:25:58.515Z,7.47
2019-06-10T08:28:33.364Z,8.63
2019-06-10T08:31:05.983Z,7.60
2019-06-10T08:33:44.371Z,7.37
2019-06-10T08:36:15.970Z,6.50
2019-06-10T08:38:49.582Z,6.73
2019-06-10T08:41:23.656Z,7.30
2019-06-10T08:44:02.113Z,6.93
2019-06-10T08:46:34.818Z,6.57
2019-06-10T08:49:06.856Z,6.93
2019-06-10T08:51:45.031Z,7.10
2019-06-10T08:54:15.378Z,6.57
2019-06-10T08:56:50.313Z,6.53
2019-06-10T08:59:23.140Z,6.03
2019-06-10T09:01:56.824Z,6.90
2019-06-10T09:04:32.920Z,7.47
2019-06-10T09:07:06.115Z,7.50
2019-06-10T09:09:45.760Z,6.97
2019-06-10T09:12:28.904Z,6.70
2019-06-10T09:14:50.720Z,6.77
2019-06-10T09:17:25.049Z,6.80
2019-06-10T09:19:58.091Z,6.60
2019-06-10T09:22:32.829Z,6.43
2019-06-10T09:25:23.103Z,6.43
2019-06-10T09:27:55.277Z,7.17
2019-06-10T09:30:33.356Z,7.00
2019-06-10T09:33:06.088Z,7.13
2019-06-10T09:35:39.911Z,6.80
2019-06-10T09:38:14.295Z,7.13
2019-06-10T09:41:01.257Z,6.40
2019-06-10T09:43:33.021Z,6.97
2019-06-10T09:46:04.054Z,6.73
2019-06-10T09:48:38.378Z,6.50
2019-06-10T09:51:12.382Z,6.20
2019-06-10T09:53:53.329Z,7.37
2019-06-10T09:56:17.408Z,6.47
2019-06-10T09:58:55.104Z,6.10
2019-06-10T10:01:24.768Z,6.63
2019-06-10T10:04:00.109Z,6.83
2019-06-10T10:06:32.750Z,6.50
2019-06-10T10:09:07.639Z,7.50
2019-06-10T10:11:45.748Z,6.60
2019-06-10T10:14:17.281Z,7.60
2019-06-10T10:16:58.364Z,6.90
2019-06-10T10:19:26.291Z,6.93
2019-06-10T10:22:02.877Z,8.20
2019-06-10T10:24:34.199Z,7.10
2019-06-10T10:27:10.238Z,7.10
2019-06-10T10:29:47.102Z,7.00
2019-06-10T10:32:18.500Z,7.23
2019-06-10T10:34:56.101Z,7.23
2019-06-10T10:37:26.455Z,7.20
2019-06-10T10:40:03.015Z,6.67
2019-06-10T10:42:45.479Z,6.70
2019-06-10T10:45:22.508Z,7.43
2019-06-10T10:47:56.737Z,7.23
2019-06-10T10:50:30.086Z,7.30
2019-06-10T10:53:03.892Z,7.20
2019-06-10T10:55:47.238Z,8.97
2019-06-10T11:01:04.920Z,7.10
2019-06-10T11:03:39.028Z,7.20
2019-06-10T11:06:12.869Z,6.97
2019-06-10T11:08:48.021Z,6.90
2019-06-10T11:11:23.013Z,7.20
2019-06-10T11:13:58.768Z,8.50
2019-06-10T11:16:47.145Z,8.30
2019-06-10T11:19:22.220Z,7.97
2019-06-10T11:21:54.924Z,8.40
2019-06-10T11:24:37.801Z,8.10
2019-06-10T11:27:05.674Z,7.73
2019-06-10T11:29:38.671Z,7.67
2019-06-10T11:32:14.432Z,7.73
2019-06-10T11:34:47.826Z,7.80
2019-06-10T11:37:23.155Z,7.53
2019-06-10T11:39:58.510Z,7.70
2019-06-10T11:42:33.485Z,8.33
2019-06-10T11:45:05.392Z,7.47
2019-06-10T11:47:53.911Z,7.70
2019-06-10T11:50:37.758Z,7.60
2019-06-10T11:53:12.935Z,8.03
2019-06-10T11:55:47.648Z,7.10
2019-06-10T11:58:22.295Z,7.37
2019-06-10T12:00:57.630Z,7.10
2019-06-10T12:03:31.764Z,8.30
2019-06-10T12:06:22.838Z,7.13
2019-06-10T12:08:58.419Z,7.90
2019-06-10T12:11:34.328Z,9.27
2019-06-10T12:14:07.942Z,7.20
2019-06-10T12:19:16.996Z,8.53
2019-06-10T12:21:55.629Z,7.47
2019-06-10T12:24:25.132Z,7.60
2019-06-10T12:27:04.484Z,6.80
2019-06-10T12:29:33.904Z,7.20
2019-06-10T12:32:08.066Z,6.63
2019-06-10T12:34:39.263Z,8.63
2019-06-10T12:37:15.929Z,7.60
2019-06-10T12:39:52.950Z,7.57
2019-06-10T12:42:25.372Z,7.20
2019-06-10T12:44:57.659Z,8.00
2019-06-10T12:47:33.241Z,6.13
2019-06-10T12:50:47.941Z,7.43
2019-06-10T12:53:22.893Z,7.10
2019-06-10T12:55:55.827Z,7.37
2019-06-10T12:58:29.233Z,6.63
2019-06-10T13:01:05.972Z,6.83
2019-06-10T13:03:37.392Z,6.90
2019-06-10T13:06:12.865Z,7.03
2019-06-10T13:08:46.161Z,7.20
2019-06-10T13:11:20.389Z,6.80
2019-06-10T13:13:53.318Z,6.73
2019-06-10T13:16:26.591Z,7.20
2019-06-10T13:19:04.527Z,6.50
2019-06-10T13:21:42.425Z,7.47
2019-06-10T13:24:16.363Z,6.60
2019-06-10T13:26:52.365Z,6.57
2019-06-10T13:29:25.315Z,7.83
2019-06-10T13:31:58.045Z,7.10
2019-06-10T13:34:29.428Z,6.47
2019-06-10T13:37:04.823Z,6.30
2019-06-10T13:39:36.693Z,7.30
2019-06-10T13:42:14.367Z,6.83
2019-06-10T13:44:47.326Z,7.03
2019-06-10T13:47:24.911Z,6.70
2019-06-10T13:49:58.892Z,6.20
2019-06-10T13:52:32.408Z,5.87
2019-06-10T13:55:30.056Z,6.10
2019-06-10T13:58:06.195Z,7.00
2019-06-10T14:00:42.741Z,7.10
2019-06-10T14:03:16.133Z,5.43
2019-06-10T14:05:57.728Z,5.40
2019-06-10T14:08:23.462Z,6.10
2019-06-10T14:10:57.396Z,6.07
2019-06-10T14:13:29.550Z,5.70
2019-06-10T14:16:03.534Z,5.93
2019-06-10T14:18:38.256Z,6.93
2019-06-10T14:21:17.621Z,6.97
2019-06-10T14:23:46.863Z,6.30
2019-06-10T14:26:40.733Z,6.03
2019-06-10T14:29:09.224Z,7.03
2019-06-10T14:31:47.601Z,6.80
2019-06-10T14:34:22.301Z,7.03
2019-06-10T14:36:54.703Z,6.47
2019-06-10T14:39:27.604Z,5.83
2019-06-10T14:41:59.674Z,6.10
2019-06-10T14:44:32.596Z,7.00
2019-06-10T14:47:06.508Z,6.13
2019-06-10T14:49:43.647Z,5.93
2019-06-10T14:52:17.093Z,5.93
2019-06-10T14:54:53.340Z,6.27
2019-06-10T14:57:27.713Z,6.10
2019-06-10T15:00:02.968Z,6.50
2019-06-10T15:02:42.944Z,6.70
2019-06-10T15:05:37.080Z,5.90
2019-06-10T15:08:13.716Z,5.60
2019-06-10T15:10:45.911Z,6.70
2019-06-10T15:13:23.426Z,6.33
2019-06-10T15:16:10.228Z,5.90
2019-06-10T15:18:43.897Z,5.53
2019-06-10T15:21:17.345Z,5.43
2019-06-10T15:23:52.321Z,5.73
2019-06-10T15:26:26.036Z,6.13
2019-06-10T15:28:58.313Z,6.20
2019-06-10T15:31:30.979Z,6.17
2019-06-10T15:34:03.370Z,6.23
2019-06-10T15:36:37.695Z,5.70
2019-06-10T15:39:16.440Z,5.30
2019-06-10T15:41:46.956Z,6.40
2019-06-10T15:44:37.310Z,6.93
2019-06-10T15:46:54.095Z,5.97
2019-06-10T15:49:28.799Z,5.83
2019-06-10T15:52:03.289Z,6.83
2019-06-10T15:54:36.151Z,7.13
2019-06-10T15:57:22.697Z,5.90
2019-06-10T15:59:44.450Z,5.87
2019-06-10T16:02:33.464Z,6.20
2019-06-10T16:05:06.946Z,6.30
2019-06-10T16:07:53.574Z,6.47
2019-06-10T16:10:45.867Z,6.90
2019-06-10T16:13:21.363Z,7.40
2019-06-10T16:15:57.755Z,6.63
2019-06-10T16:18:29.880Z,6.70
2019-06-10T16:21:05.722Z,7.23
2019-06-10T16:23:39.073Z,6.33
2019-06-10T16:26:13.092Z,6.60
2019-06-10T16:28:47.341Z,6.70
2019-06-10T16:31:22.956Z,6.07
2019-06-10T16:33:53.691Z,6.63
2019-06-10T16:36:28.076Z,6.77
2019-06-10T16:39:00.548Z,7.70
2019-06-10T16:41:36.221Z,6.90
2019-06-10T16:44:09.618Z,7.67
2019-06-10T16:46:44.120Z,6.37
2019-06-10T16:49:17.481Z,6.30
2019-06-10T16:51:49.453Z,6.73
2019-06-10T16:54:25.153Z,7.20
2019-06-10T16:56:56.336Z,5.87
2019-06-10T16:59:32.848Z,6.90
2019-06-10T17:02:05.372Z,7.90
2019-06-10T17:04:39.746Z,7.00
2019-06-10T17:07:12.627Z,6.70
2019-06-10T17:09:44.806Z,6.67
2019-06-10T17:12:18.139Z,7.17
2019-06-10T17:14:55.685Z,6.67
2019-06-10T17:17:32.635Z,7.47
2019-06-10T17:20:06.229Z,7.23
2019-06-10T17:22:38.748Z,6.60
2019-06-10T17:25:12.976Z,7.47
2019-06-10T17:27:43.651Z,7.27
2019-06-10T17:30:36.808Z,6.90
2019-06-10T17:33:08.509Z,6.70
2019-06-10T17:35:43.170Z,7.47
2019-06-10T17:38:16.601Z,7.30
2019-06-10T17:40:57.622Z,8.00
2019-06-10T17:43:34.298Z,8.03
2019-06-10T17:46:08.439Z,8.00
2019-06-10T17:48:43.725Z,7.20
2019-06-10T17:51:16.582Z,7.37
2019-06-10T17:53:49.689Z,7.80
2019-06-10T17:56:26.262Z,7.10
2019-06-10T17:58:59.772Z,7.43
2019-06-10T18:01:35.272Z,7.63
2019-06-10T18:04:06.977Z,8.43
2019-06-10T18:06:42.318Z,8.00
2019-06-10T18:09:12.877Z,7.00
2019-06-10T18:11:47.511Z,7.83
2019-06-10T18:14:22.926Z,7.53
2019-06-10T18:16:56.739Z,7.37
2019-06-10T18:19:28.837Z,7.23
2019-06-10T18:22:02.899Z,7.70
2019-06-10T18:24:36.148Z,7.37
2019-06-10T18:27:12.777Z,7.30
2019-06-10T18:29:50.909Z,8.13
2019-06-10T18:32:22.960Z,7.40
2019-06-10T18:34:57.665Z,7.13
2019-06-10T18:37:34.513Z,7.43
2019-06-10T18:40:06.343Z,8.50
2019-06-10T18:42:39.020Z,7.50
2019-06-10T18:45:44.740Z,7.20
2019-06-10T18:48:17.942Z,6.77
2019-06-10T18:50:53.360Z,8.00
2019-06-10T18:53:25.010Z,7.83
2019-06-10T18:55:56.217Z,7.57
2019-06-10T18:58:30.021Z,7.33
2019-06-10T19:01:07.889Z,8.70
2019-06-10T19:03:42.949Z,7.17
2019-06-10T19:06:16.979Z,7.40
2019-06-10T19:08:53.145Z,7.40
2019-06-10T19:11:27.186Z,7.40
2019-06-10T19:14:00.048Z,7.80
2019-06-10T19:16:37.326Z,8.10
2019-06-10T19:19:25.856Z,8.13
2019-06-10T19:22:13.218Z,7.90
2019-06-10T19:24:46.246Z,8.73
2019-06-10T19:27:19.536Z,8.50
2019-06-10T19:29:54.802Z,7.50
2019-06-10T19:32:27.744Z,8.33
2019-06-10T19:35:03.834Z,8.37
2019-06-10T19:37:40.684Z,7.50
2019-06-10T19:43:21.819Z,7.97
2019-06-10T19:46:06.315Z,10.43
2019-06-10T19:48:43.379Z,8.60
2019-06-10T19:51:15.435Z,7.43
2019-06-10T19:53:49.444Z,8.00
2019-06-10T19:56:24.223Z,8.27
2019-06-10T19:58:56.243Z,8.70
2019-06-10T20:01:29.286Z,7.87
2019-06-10T20:04:05.344Z,8.27
2019-06-10T20:06:47.099Z,7.80
2019-06-10T20:09:17.494Z,8.40
2019-06-10T20:11:51.827Z,8.80
2019-06-10T20:14:23.668Z,8.67
2019-06-10T20:17:00.045Z,7.53
2019-06-10T20:19:33.078Z,8.00
2019-06-10T20:22:04.600Z,8.57
2019-06-10T20:24:38.435Z,8.40
2019-06-10T20:27:11.581Z,8.70
2019-06-10T20:29:45.665Z,7.77
2019-06-10T20:32:19.406Z,8.07
2019-06-10T20:34:55.174Z,8.37
2019-06-10T20:37:32.562Z,8.33
2019-06-10T20:40:04.610Z,8.93
2019-06-10T20:42:40.366Z,8.97
2019-06-10T20:45:15.256Z,8.87
2019-06-10T20:47:48.463Z,9.83
2019-06-10T20:50:43.657Z,8.10
2019-06-10T20:53:18.200Z,8.90
2019-06-10T20:55:57.812Z,8.67
2019-06-10T20:58:29.554Z,8.70
2019-06-10T21:01:04.382Z,8.83
2019-06-10T21:03:39.008Z,7.20
2019-06-10T21:06:13.803Z,7.70
2019-06-10T21:08:49.386Z,9.70
2019-06-10T21:11:24.780Z,8.00
2019-06-10T21:14:02.968Z,8.20
2019-06-10T21:16:36.652Z,8.57
2019-06-10T21:19:08.731Z,8.73
2019-06-10T21:21:45.681Z,8.43
2019-06-10T21:24:19.720Z,9.00
2019-06-10T21:26:55.426Z,8.30
2019-06-10T21:29:28.600Z,8.70
2019-06-10T21:32:03.461Z,8.20
2019-06-10T21:34:33.811Z,7.87
2019-06-10T21:37:06.819Z,8.73
2019-06-10T21:39:44.874Z,8.47
2019-06-10T21:42:18.178Z,8.30
2019-06-10T21:44:52.110Z,7.33
2019-06-10T21:47:27.460Z,8.17
2019-06-10T21:50:02.516Z,8.60
2019-06-10T21:52:35.847Z,8.17
2019-06-10T21:55:13.156Z,9.17
2019-06-10T21:57:59.139Z,9.10
2019-06-10T22:00:55.756Z,8.40
2019-06-10T22:03:20.392Z,8.73
2019-06-10T22:05:55.260Z,8.40
2019-06-10T22:08:32.733Z,8.70
2019-06-10T22:11:07.675Z,8.87
2019-06-10T22:13:38.879Z,8.33
2019-06-10T22:16:13.618Z,8.83
2019-06-10T22:18:46.902Z,8.73
2019-06-10T22:21:22.672Z,8.10
2019-06-10T22:23:57.156Z,8.37
2019-06-10T22:26:32.755Z,8.20
2019-06-10T22:29:06.113Z,8.77
2019-06-10T22:31:39.820Z,8.20
2019-06-10T22:34:12.633Z,8.80
2019-06-10T22:36:49.633Z,7.67
2019-06-10T22:39:23.063Z,8.40
2019-06-10T22:41:56.874Z,8.47
2019-06-10T22:44:29.061Z,18.17
2019-06-10T22:47:02.905Z,8.00
2019-06-10T22:49:34.697Z,8.20
2019-06-10T22:52:06.930Z,8.27
2019-06-10T22:54:43.073Z,8.60
2019-06-10T22:57:15.630Z,7.43
2019-06-10T22:59:48.694Z,8.67
2019-06-10T23:02:22.902Z,8.47
2019-06-10T23:04:59.368Z,8.80
2019-06-10T23:07:32.966Z,9.20
2019-06-10T23:10:09.564Z,9.13
2019-06-10T23:12:43.089Z,8.70
2019-06-10T23:15:16.892Z,7.70
2019-06-10T23:17:53.638Z,8.30
2019-06-10T23:20:38.408Z,8.10
2019-06-10T23:23:12.436Z,8.30
2019-06-10T23:25:46.985Z,8.50
2019-06-10T23:28:18.170Z,9.00
2019-06-10T23:30:53.574Z,9.17
2019-06-10T23:33:25.339Z,8.50
2019-06-10T23:36:03.651Z,9.03
2019-06-10T23:38:34.275Z,8.63
2019-06-10T23:41:23.782Z,8.73
2019-06-10T23:43:59.160Z,7.60
2019-06-10T23:46:32.000Z,8.47
2019-06-10T23:49:06.856Z,8.87
2019-06-10T23:51:39.617Z,8.77
2019-06-10T23:54:13.609Z,9.00
2019-06-10T23:56:46.732Z,8.87
2019-06-10T23:59:19.418Z,8.60
